createdAt,value
2019-06-27T00:01:38.864Z,86.51
2019-06-27T00:04:08.734Z,88.85
2019-06-27T00:06:38.525Z,89.73
2019-06-27T00:09:10.575Z,90.13
2019-06-27T00:11:40.414Z,91.51
2019-06-27T00:14:10.327Z,90.85
2019-06-27T00:16:40.226Z,90.69
2019-06-27T00:19:09.851Z,91.65
2019-06-27T00:21:39.699Z,92.97
2019-06-27T00:24:09.648Z,94.40
2019-06-27T00:26:55.874Z,95.76
2019-06-27T00:29:11.041Z,96.73
2019-06-27T00:31:40.896Z,97.72
2019-06-27T00:34:10.816Z,97.01
2019-06-27T00:36:40.788Z,95.96
2019-06-27T00:39:10.647Z,96.09
2019-06-27T00:41:40.560Z,95.86
2019-06-27T00:44:10.521Z,95.31
2019-06-27T00:46:40.394Z,96.04
2019-06-27T00:49:10.312Z,95.65
2019-06-27T00:51:40.584Z,95.29
2019-06-27T00:54:10.356Z,94.91
2019-06-27T00:56:40.309Z,95.60
2019-06-27T00:59:10.179Z,95.90
2019-06-27T01:01:40.208Z,96.03
2019-06-27T01:04:10.055Z,96.24
2019-06-27T01:06:39.935Z,96.39
2019-06-27T01:09:10.035Z,96.58
2019-06-27T01:11:39.773Z,96.82
2019-06-27T01:14:09.650Z,97.53
2019-06-27T01:16:39.260Z,98.02
2019-06-27T01:19:09.150Z,97.62
2019-06-27T01:21:39.099Z,97.66
2019-06-27T01:24:08.906Z,97.91
2019-06-27T01:26:38.628Z,97.59
2019-06-27T01:29:08.444Z,97.81
2019-06-27T01:31:38.279Z,98.56
2019-06-27T01:34:08.344Z,99.56
2019-06-27T01:36:38.315Z,100.00
2019-06-27T01:39:08.217Z,100.00
2019-06-27T01:41:38.311Z,100.00
2019-06-27T01:44:29.073Z,100.00
2019-06-27T01:46:59.209Z,100.00
2019-06-27T01:49:28.895Z,100.00
2019-06-27T01:51:58.812Z,100.00
2019-06-27T01:54:28.673Z,100.00
2019-06-27T01:56:58.538Z,100.00
2019-06-27T01:59:28.338Z,100.00
2019-06-27T02:01:58.197Z,100.00
2019-06-27T02:04:27.964Z,100.00
2019-06-27T02:06:57.890Z,100.00
2019-06-27T02:09:27.785Z,100.00
2019-06-27T02:11:57.720Z,100.00
2019-06-27T02:14:27.637Z,100.00
2019-06-27T02:16:57.705Z,100.00
2019-06-27T02:19:27.471Z,100.00
2019-06-27T02:21:57.432Z,100.00
2019-06-27T02:24:27.216Z,100.00
2019-06-27T02:26:57.021Z,100.00
2019-06-27T02:29:26.890Z,100.00
2019-06-27T02:31:56.802Z,100.00
2019-06-27T02:34:26.702Z,100.00
2019-06-27T02:36:56.588Z,100.00
2019-06-27T02:39:26.512Z,100.00
2019-06-27T02:41:56.467Z,100.00
2019-06-27T02:44:26.348Z,100.00
2019-06-27T02:46:56.242Z,100.00
2019-06-27T02:49:25.997Z,100.00
2019-06-27T02:51:55.772Z,100.00
2019-06-27T02:54:25.493Z,100.00
2019-06-27T02:56:55.328Z,100.00
2019-06-27T02:59:25.239Z,100.00
2019-06-27T03:01:55.212Z,100.00
2019-06-27T03:04:25.087Z,100.00
2019-06-27T03:06:54.984Z,100.00
2019-06-27T03:09:26.246Z,100.00
2019-06-27T03:11:59.821Z,100.00
2019-06-27T03:14:27.585Z,100.00
2019-06-27T03:16:57.513Z,100.00
2019-06-27T03:19:27.350Z,99.67
2019-06-27T03:21:57.256Z,99.64
2019-06-27T03:24:27.169Z,100.00
2019-06-27T03:26:57.041Z,100.00
2019-06-27T03:29:28.614Z,100.00
2019-06-27T03:31:58.444Z,100.00
2019-06-27T03:34:28.410Z,100.00
2019-06-27T03:36:58.300Z,99.14
2019-06-27T03:39:28.183Z,98.37
2019-06-27T03:41:57.893Z,98.71
2019-06-27T03:44:28.240Z,99.35
2019-06-27T03:46:57.938Z,97.37
2019-06-27T03:49:27.908Z,96.67
2019-06-27T03:51:57.725Z,96.38
2019-06-27T03:54:27.733Z,94.94
2019-06-27T03:56:57.522Z,93.61
2019-06-27T03:59:27.582Z,94.00
2019-06-27T04:01:57.552Z,92.36
2019-06-27T04:04:27.481Z,91.73
2019-06-27T04:06:57.335Z,90.36
2019-06-27T04:09:27.209Z,90.58
2019-06-27T04:11:56.999Z,90.72
2019-06-27T04:14:26.961Z,89.96
2019-06-27T04:16:56.832Z,87.91
2019-06-27T04:19:26.747Z,86.45
2019-06-27T04:21:56.778Z,85.67
2019-06-27T04:24:26.584Z,83.38
2019-06-27T04:26:56.307Z,82.04
2019-06-27T04:29:33.407Z,80.81
2019-06-27T04:31:57.774Z,80.23
2019-06-27T04:34:27.488Z,79.66
2019-06-27T04:36:57.360Z,78.17
2019-06-27T04:39:27.313Z,76.83
2019-06-27T04:41:57.247Z,77.60
2019-06-27T04:44:27.902Z,76.27
2019-06-27T04:46:57.780Z,76.38
2019-06-27T04:49:27.693Z,76.97
2019-06-27T04:51:57.648Z,76.33
2019-06-27T04:54:27.548Z,76.45
2019-06-27T04:56:57.339Z,75.32
2019-06-27T04:59:27.097Z,74.33
2019-06-27T05:01:56.875Z,73.32
2019-06-27T05:04:26.705Z,73.75
2019-06-27T05:06:56.558Z,73.03
2019-06-27T05:09:26.536Z,71.46
2019-06-27T05:11:56.353Z,70.18
2019-06-27T05:14:26.309Z,70.07
2019-06-27T05:16:56.174Z,70.46
2019-06-27T05:19:25.981Z,69.81
2019-06-27T05:21:55.919Z,70.57
2019-06-27T05:24:25.727Z,70.16
2019-06-27T05:26:55.666Z,69.72
2019-06-27T05:29:25.515Z,69.17
2019-06-27T05:31:55.359Z,67.52
2019-06-27T05:34:25.076Z,66.98
2019-06-27T05:36:56.215Z,66.68
2019-06-27T05:39:26.030Z,66.62
2019-06-27T05:41:55.858Z,65.99
2019-06-27T05:44:25.818Z,65.24
2019-06-27T05:46:55.878Z,64.99
2019-06-27T05:49:25.609Z,63.99
2019-06-27T05:51:55.567Z,63.35
2019-06-27T05:54:25.440Z,62.36
2019-06-27T05:56:55.328Z,61.02
2019-06-27T05:59:25.087Z,60.16
2019-06-27T06:01:54.869Z,59.13
2019-06-27T06:04:24.888Z,58.97
2019-06-27T06:06:54.721Z,60.26
2019-06-27T06:09:24.616Z,59.00
2019-06-27T06:11:54.681Z,59.03
2019-06-27T06:14:24.454Z,58.49
2019-06-27T06:16:54.238Z,57.05
2019-06-27T06:19:24.142Z,56.05
2019-06-27T06:21:54.044Z,55.23
2019-06-27T06:24:23.721Z,54.69
2019-06-27T06:26:53.641Z,54.49
2019-06-27T06:29:23.618Z,54.36
2019-06-27T06:31:53.449Z,53.75
2019-06-27T06:34:22.972Z,51.55
2019-06-27T06:36:52.839Z,50.21
2019-06-27T06:39:22.713Z,49.72
2019-06-27T06:41:52.501Z,49.03
2019-06-27T06:44:22.303Z,49.37
2019-06-27T06:46:52.393Z,48.38
2019-06-27T06:49:22.044Z,48.40
2019-06-27T06:51:51.960Z,47.95
2019-06-27T06:54:21.597Z,48.21
2019-06-27T06:56:51.389Z,47.91
2019-06-27T06:59:22.256Z,47.55
2019-06-27T07:01:52.182Z,46.86
2019-06-27T07:04:21.998Z,46.63
2019-06-27T07:06:51.780Z,46.25
2019-06-27T07:09:21.915Z,46.79
2019-06-27T07:11:51.798Z,46.37
2019-06-27T07:14:21.734Z,46.85
2019-06-27T07:16:51.548Z,48.50
2019-06-27T07:19:21.509Z,48.33
2019-06-27T07:21:51.406Z,47.35
2019-06-27T07:24:21.237Z,45.76
2019-06-27T07:26:51.111Z,42.34
2019-06-27T07:29:20.826Z,42.47
2019-06-27T07:31:50.703Z,41.96
2019-06-27T07:34:20.717Z,40.99
2019-06-27T07:36:50.458Z,41.92
2019-06-27T07:39:20.290Z,40.92
2019-06-27T07:41:51.365Z,41.74
2019-06-27T07:44:21.237Z,40.95
2019-06-27T07:46:50.890Z,42.97
2019-06-27T07:49:20.990Z,43.04
2019-06-27T07:51:50.785Z,41.97
2019-06-27T07:54:20.462Z,42.37
2019-06-27T07:56:50.224Z,41.36
2019-06-27T07:59:20.148Z,40.33
2019-06-27T08:01:50.008Z,39.44
2019-06-27T08:04:19.851Z,40.15
2019-06-27T08:06:49.777Z,40.21
2019-06-27T08:09:19.656Z,40.04
2019-06-27T08:11:49.774Z,39.34
2019-06-27T08:14:19.625Z,39.57
2019-06-27T08:16:49.489Z,38.70
2019-06-27T08:19:19.259Z,38.17
2019-06-27T08:21:49.193Z,38.67
2019-06-27T08:24:19.180Z,39.24
2019-06-27T08:26:49.037Z,38.74
2019-06-27T08:29:18.944Z,39.51
2019-06-27T08:31:51.865Z,40.30
2019-06-27T08:34:20.290Z,39.92
2019-06-27T08:36:49.909Z,39.54
2019-06-27T08:39:19.829Z,39.62
2019-06-27T08:41:49.525Z,39.52
2019-06-27T08:44:19.172Z,39.81
2019-06-27T08:46:49.168Z,40.04
2019-06-27T08:49:19.129Z,39.28
2019-06-27T08:51:49.039Z,39.49
2019-06-27T08:54:18.868Z,40.21
2019-06-27T08:56:48.648Z,40.23
2019-06-27T08:59:18.481Z,40.18
2019-06-27T09:01:48.270Z,40.13
2019-06-27T09:04:18.214Z,39.67
2019-06-27T09:06:47.992Z,39.80
2019-06-27T09:09:17.797Z,40.26
2019-06-27T09:11:47.647Z,40.18
2019-06-27T09:14:17.388Z,40.13
2019-06-27T09:16:47.237Z,40.01
2019-06-27T09:19:17.012Z,40.22
2019-06-27T09:21:46.756Z,40.26
2019-06-27T09:24:16.396Z,40.34
2019-06-27T09:26:46.730Z,40.70
2019-06-27T09:29:16.629Z,40.60
2019-06-27T09:31:46.327Z,39.92
2019-06-27T09:34:16.014Z,40.22
2019-06-27T09:36:45.876Z,41.44
2019-06-27T09:39:15.795Z,41.67
2019-06-27T09:41:45.646Z,42.38
2019-06-27T09:44:15.503Z,42.03
2019-06-27T09:46:45.429Z,42.21
2019-06-27T09:49:15.286Z,41.16
2019-06-27T09:51:45.055Z,41.90
2019-06-27T09:54:14.967Z,41.68
2019-06-27T09:56:45.133Z,41.75
2019-06-27T09:59:15.027Z,41.16
2019-06-27T10:01:45.042Z,40.43
2019-06-27T10:04:14.890Z,40.32
2019-06-27T10:06:44.652Z,40.94
2019-06-27T10:09:14.300Z,41.87
2019-06-27T10:11:44.302Z,42.88
2019-06-27T10:14:14.191Z,43.19
2019-06-27T10:16:44.132Z,42.46
2019-06-27T10:19:13.930Z,40.58
2019-06-27T10:21:43.884Z,41.65
2019-06-27T10:24:13.679Z,40.93
2019-06-27T10:26:43.619Z,41.48
2019-06-27T10:29:13.334Z,40.45
2019-06-27T10:31:43.242Z,40.60
2019-06-27T10:34:13.069Z,40.45
2019-06-27T10:36:42.849Z,40.38
2019-06-27T10:39:12.875Z,41.66
2019-06-27T10:41:42.823Z,41.31
2019-06-27T10:44:12.597Z,40.03
2019-06-27T10:46:42.656Z,40.65
2019-06-27T10:49:12.455Z,41.59
2019-06-27T10:51:42.349Z,42.01
2019-06-27T10:54:12.408Z,42.33
2019-06-27T10:56:42.184Z,42.99
2019-06-27T10:59:12.086Z,42.47
2019-06-27T11:01:42.267Z,42.63
2019-06-27T11:04:12.227Z,42.74
2019-06-27T11:06:42.030Z,41.40
2019-06-27T11:09:14.320Z,41.66
2019-06-27T11:11:43.596Z,40.16
2019-06-27T11:14:13.444Z,41.40
2019-06-27T11:16:43.364Z,40.70
2019-06-27T11:19:14.313Z,39.36
2019-06-27T11:21:44.133Z,40.35
2019-06-27T11:24:13.930Z,39.64
2019-06-27T11:26:43.900Z,38.74
2019-06-27T11:29:13.754Z,38.31
2019-06-27T11:31:43.777Z,38.08
2019-06-27T11:34:13.586Z,38.10
2019-06-27T11:36:46.468Z,37.55
2019-06-27T11:39:14.892Z,38.27
2019-06-27T11:41:44.767Z,37.13
2019-06-27T11:44:14.469Z,36.91
2019-06-27T11:46:44.459Z,35.78
2019-06-27T11:49:14.108Z,35.43
2019-06-27T11:51:43.806Z,35.34
2019-06-27T11:54:13.573Z,35.54
2019-06-27T11:56:43.360Z,34.79
2019-06-27T11:59:13.067Z,34.11
2019-06-27T12:01:42.929Z,34.45
2019-06-27T12:04:12.689Z,33.59
2019-06-27T12:06:42.514Z,32.58
2019-06-27T12:09:12.484Z,29.66
2019-06-27T12:11:42.334Z,28.42
2019-06-27T12:14:12.293Z,25.90
2019-06-27T12:16:42.278Z,24.20
2019-06-27T12:19:12.072Z,23.29
2019-06-27T12:21:41.951Z,22.57
2019-06-27T12:24:11.703Z,22.35
2019-06-27T12:26:42.672Z,22.43
2019-06-27T12:29:12.560Z,21.85
2019-06-27T12:31:42.276Z,22.17
2019-06-27T12:34:12.196Z,21.00
2019-06-27T12:36:42.169Z,20.25
2019-06-27T12:39:11.946Z,20.40
2019-06-27T12:41:41.644Z,20.25
2019-06-27T12:44:12.713Z,20.25
2019-06-27T12:46:42.536Z,20.14
2019-06-27T12:49:12.459Z,20.20
2019-06-27T12:51:42.217Z,20.72
2019-06-27T12:54:11.960Z,21.13
2019-06-27T12:56:41.917Z,23.40
2019-06-27T12:59:11.764Z,21.76
2019-06-27T13:01:41.399Z,21.42
2019-06-27T13:04:22.867Z,22.71
2019-06-27T13:06:42.659Z,23.15
2019-06-27T13:09:12.476Z,22.16
2019-06-27T13:11:42.544Z,21.83
2019-06-27T13:14:12.432Z,21.67
2019-06-27T13:16:42.250Z,21.54
2019-06-27T13:19:12.171Z,22.07
2019-06-27T13:21:41.940Z,21.83
2019-06-27T13:24:12.986Z,21.81
2019-06-27T13:26:43.020Z,22.01
2019-06-27T13:29:12.832Z,22.16
2019-06-27T13:31:42.750Z,21.85
2019-06-27T13:34:12.684Z,21.04
2019-06-27T13:36:42.570Z,21.86
2019-06-27T13:39:12.527Z,21.93
2019-06-27T13:41:42.407Z,21.59
2019-06-27T13:44:12.209Z,20.72
2019-06-27T13:46:42.065Z,21.55
2019-06-27T13:49:11.757Z,19.75
2019-06-27T13:51:42.833Z,19.05
2019-06-27T13:54:12.488Z,21.03
2019-06-27T13:56:42.104Z,21.28
2019-06-27T13:59:12.073Z,21.29
2019-06-27T14:01:41.993Z,20.00
2019-06-27T14:04:11.766Z,20.31
2019-06-27T14:06:41.832Z,20.23
2019-06-27T14:09:22.401Z,21.20
2019-06-27T14:11:43.029Z,22.71
2019-06-27T14:14:12.986Z,22.61
2019-06-27T14:16:42.872Z,22.52
2019-06-27T14:19:12.815Z,22.81
2019-06-27T14:21:42.634Z,21.55
2019-06-27T14:24:12.546Z,19.87
2019-06-27T14:26:42.330Z,19.14
2019-06-27T14:29:11.976Z,18.68
2019-06-27T14:31:41.772Z,19.55
2019-06-27T14:34:11.632Z,20.65
2019-06-27T14:36:41.490Z,20.66
2019-06-27T14:39:11.200Z,22.40
2019-06-27T14:41:41.047Z,21.47
2019-06-27T14:44:11.116Z,21.59
2019-06-27T14:46:40.966Z,20.93
2019-06-27T14:49:10.776Z,19.47
2019-06-27T14:51:40.536Z,19.87
2019-06-27T14:54:10.385Z,19.75
2019-06-27T14:56:40.186Z,19.27
2019-06-27T14:59:14.019Z,20.21
2019-06-27T15:01:41.563Z,18.68
2019-06-27T15:04:11.589Z,18.80
2019-06-27T15:06:41.339Z,18.30
2019-06-27T15:09:11.128Z,18.25
2019-06-27T15:11:41.104Z,18.36
2019-06-27T15:14:10.875Z,18.63
2019-06-27T15:16:40.825Z,20.10
2019-06-27T15:19:10.798Z,19.20
2019-06-27T15:21:40.589Z,20.59
2019-06-27T15:24:10.245Z,21.25
2019-06-27T15:26:40.057Z,21.86
2019-06-27T15:29:09.963Z,20.70
2019-06-27T15:31:39.929Z,20.93
2019-06-27T15:34:10.009Z,21.02
2019-06-27T15:36:39.957Z,21.73
2019-06-27T15:39:12.005Z,21.76
2019-06-27T15:41:41.722Z,20.55
2019-06-27T15:44:11.507Z,21.53
2019-06-27T15:46:41.489Z,22.89
2019-06-27T15:49:11.390Z,24.04
2019-06-27T15:51:41.239Z,22.58
2019-06-27T15:54:11.144Z,22.34
2019-06-27T15:56:40.803Z,22.03
2019-06-27T15:59:10.585Z,20.52
2019-06-27T16:01:40.655Z,21.38
2019-06-27T16:04:10.423Z,21.19
2019-06-27T16:06:40.322Z,20.98
2019-06-27T16:09:10.363Z,20.60
2019-06-27T16:11:41.483Z,22.15
2019-06-27T16:14:11.300Z,22.62
2019-06-27T16:16:41.235Z,22.02
2019-06-27T16:19:11.129Z,21.19
2019-06-27T16:21:40.979Z,21.05
2019-06-27T16:24:10.908Z,21.05
2019-06-27T16:26:40.679Z,20.50
2019-06-27T16:29:10.292Z,21.09
2019-06-27T16:31:40.288Z,21.85
2019-06-27T16:34:10.042Z,21.75
2019-06-27T16:36:39.739Z,23.77
2019-06-27T16:39:09.742Z,24.52
2019-06-27T16:41:39.429Z,25.32
2019-06-27T16:44:09.164Z,26.01
2019-06-27T16:46:39.191Z,27.06
2019-06-27T16:49:09.072Z,27.28
2019-06-27T16:51:38.940Z,28.75
2019-06-27T16:54:08.815Z,29.10
2019-06-27T16:56:38.855Z,29.23
2019-06-27T16:59:08.578Z,32.03
2019-06-27T17:01:38.612Z,31.53
2019-06-27T17:04:08.632Z,31.49
2019-06-27T17:06:42.353Z,32.86
2019-06-27T17:09:10.143Z,33.54
2019-06-27T17:11:39.900Z,33.45
2019-06-27T17:14:09.804Z,33.48
2019-06-27T17:16:39.689Z,33.93
2019-06-27T17:19:09.564Z,34.44
2019-06-27T17:21:39.481Z,34.52
2019-06-27T17:24:09.500Z,36.09
2019-06-27T17:26:39.292Z,35.67
2019-06-27T17:29:09.206Z,36.74
2019-06-27T17:31:38.963Z,37.80
2019-06-27T17:34:08.733Z,37.65
2019-06-27T17:36:38.448Z,38.95
2019-06-27T17:39:08.431Z,39.78
2019-06-27T17:41:38.170Z,40.05
2019-06-27T17:44:07.787Z,41.17
2019-06-27T17:46:37.657Z,43.06
2019-06-27T17:49:07.527Z,42.94
2019-06-27T17:51:37.538Z,42.92
2019-06-27T17:54:07.284Z,43.88
2019-06-27T17:56:36.974Z,44.88
2019-06-27T17:59:07.064Z,45.19
2019-06-27T18:01:36.920Z,46.58
2019-06-27T18:04:06.946Z,48.17
2019-06-27T18:06:36.784Z,49.72
2019-06-27T18:09:06.767Z,55.47
2019-06-27T18:11:36.584Z,56.80
2019-06-27T18:14:07.618Z,57.50
2019-06-27T18:16:37.469Z,61.14
2019-06-27T18:19:07.268Z,63.81
2019-06-27T18:21:36.971Z,62.93
2019-06-27T18:24:06.874Z,64.79
2019-06-27T18:26:36.831Z,65.47
2019-06-27T18:29:06.743Z,67.77
2019-06-27T18:31:36.502Z,68.50
2019-06-27T18:34:06.340Z,69.49
2019-06-27T18:36:36.411Z,69.02
2019-06-27T18:39:06.586Z,68.32
2019-06-27T18:41:36.381Z,68.61
2019-06-27T18:44:06.243Z,69.01
2019-06-27T18:46:36.019Z,68.97
2019-06-27T18:49:05.942Z,69.41
2019-06-27T18:51:35.805Z,69.24
2019-06-27T18:54:05.456Z,69.14
2019-06-27T18:56:35.281Z,70.22
2019-06-27T18:59:05.340Z,70.19
2019-06-27T19:01:35.096Z,69.18
2019-06-27T19:04:05.060Z,68.67
2019-06-27T19:06:34.923Z,68.24
2019-06-27T19:09:04.849Z,67.17
2019-06-27T19:11:34.665Z,67.13
2019-06-27T19:14:05.846Z,67.00
2019-06-27T19:16:35.624Z,66.05
2019-06-27T19:19:09.485Z,65.80
2019-06-27T19:21:49.127Z,65.66
2019-06-27T19:24:42.555Z,65.94
2019-06-27T19:27:12.392Z,66.06
2019-06-27T19:29:42.188Z,65.53
2019-06-27T19:32:12.040Z,66.03
2019-06-27T19:34:41.856Z,66.16
2019-06-27T19:37:11.711Z,66.68
2019-06-27T19:39:42.670Z,67.71
2019-06-27T19:42:12.482Z,67.83
2019-06-27T19:44:42.305Z,67.29
2019-06-27T19:47:12.274Z,68.01
2019-06-27T19:49:42.487Z,67.73
2019-06-27T19:52:12.271Z,68.50
2019-06-27T19:54:42.002Z,68.83
2019-06-27T19:57:12.292Z,69.61
2019-06-27T19:59:42.163Z,69.33
2019-06-27T20:02:11.924Z,69.51
2019-06-27T20:04:41.719Z,69.08
2019-06-27T20:07:11.366Z,68.72
2019-06-27T20:09:41.273Z,68.89
2019-06-27T20:12:11.257Z,69.09
2019-06-27T20:14:41.038Z,65.99
2019-06-27T20:17:10.916Z,66.85
2019-06-27T20:19:40.745Z,67.78
2019-06-27T20:22:11.167Z,69.02
2019-06-27T20:24:41.172Z,68.75
2019-06-27T20:27:12.248Z,67.29
2019-06-27T20:29:42.007Z,69.90
2019-06-27T20:32:11.922Z,68.21
2019-06-27T20:34:41.786Z,67.96
2019-06-27T20:37:11.573Z,67.39
2019-06-27T20:39:41.593Z,65.96
2019-06-27T20:42:11.500Z,67.24
2019-06-27T20:44:41.315Z,66.38
2019-06-27T20:47:11.553Z,65.51
2019-06-27T20:49:41.371Z,64.25
2019-06-27T20:52:11.263Z,63.42
2019-06-27T20:54:41.024Z,63.20
2019-06-27T20:57:10.942Z,63.76
2019-06-27T20:59:40.802Z,64.23
2019-06-27T21:02:10.518Z,64.61
2019-06-27T21:04:40.586Z,63.80
2019-06-27T21:07:10.341Z,63.72
2019-06-27T21:09:40.087Z,62.85
2019-06-27T21:12:09.772Z,64.08
2019-06-27T21:14:39.560Z,63.54
2019-06-27T21:17:09.297Z,64.88
2019-06-27T21:19:39.064Z,64.47
2019-06-27T21:22:08.847Z,65.56
2019-06-27T21:24:38.536Z,65.28
2019-06-27T21:27:08.291Z,65.07
2019-06-27T21:29:38.062Z,64.82
2019-06-27T21:32:07.815Z,64.24
2019-06-27T21:34:37.698Z,64.81
2019-06-27T21:37:07.525Z,64.76
2019-06-27T21:39:37.550Z,64.30
2019-06-27T21:42:07.501Z,63.62
2019-06-27T21:44:37.248Z,63.41
2019-06-27T21:47:07.067Z,64.20
2019-06-27T21:49:36.873Z,65.23
2019-06-27T21:52:06.623Z,66.26
2019-06-27T21:54:36.633Z,66.60
2019-06-27T21:57:06.491Z,67.11
2019-06-27T21:59:36.472Z,68.47
2019-06-27T22:02:06.389Z,69.85
2019-06-27T22:04:36.243Z,70.29
2019-06-27T22:07:06.217Z,70.39
2019-06-27T22:09:36.034Z,67.95
2019-06-27T22:12:06.297Z,69.68
2019-06-27T22:14:36.234Z,69.97
2019-06-27T22:17:06.089Z,68.70
2019-06-27T22:19:36.005Z,70.17
2019-06-27T22:22:05.961Z,71.57
2019-06-27T22:24:35.738Z,70.72
2019-06-27T22:27:05.654Z,70.82
2019-06-27T22:29:35.737Z,71.57
2019-06-27T22:32:05.793Z,71.36
2019-06-27T22:34:35.728Z,71.82
2019-06-27T22:37:06.470Z,72.52
2019-06-27T22:39:54.109Z,72.66
2019-06-27T22:42:41.493Z,72.33
2019-06-27T22:45:29.916Z,72.94
2019-06-27T22:48:13.589Z,73.49
2019-06-27T22:51:11.231Z,74.35
2019-06-27T22:53:55.513Z,74.86
2019-06-27T22:56:25.258Z,75.57
2019-06-27T22:58:55.148Z,75.62
2019-06-27T23:01:25.069Z,75.94
2019-06-27T23:03:55.011Z,71.81
2019-06-27T23:06:24.895Z,73.06
2019-06-27T23:08:54.712Z,69.92
2019-06-27T23:11:24.670Z,71.33
2019-06-27T23:13:54.545Z,71.02
2019-06-27T23:16:24.563Z,71.83
2019-06-27T23:18:54.423Z,72.26
2019-06-27T23:21:24.290Z,72.82
2019-06-27T23:23:54.308Z,71.83
2019-06-27T23:26:24.208Z,72.49
2019-06-27T23:28:54.036Z,73.00
2019-06-27T23:31:23.840Z,72.99
2019-06-27T23:33:53.717Z,73.25
2019-06-27T23:36:23.688Z,73.73
2019-06-27T23:38:53.537Z,74.11
2019-06-27T23:41:23.466Z,74.82
2019-06-27T23:43:53.484Z,75.20
2019-06-27T23:46:42.376Z,75.79
2019-06-27T23:49:12.574Z,76.53
2019-06-27T23:51:42.312Z,78.23
2019-06-27T23:54:12.137Z,78.50
2019-06-27T23:56:41.967Z,77.21
2019-06-27T23:59:11.839Z,77.01
